»·PEaware :: N1718G KVCV-KVGT

N1718G :: KVCV-KVGT

FLIGHT INFORMATION

Flight Status: Arrived
Operator: Privately registered:
United States
More flights under this callsign
Pilot: Spencer M. (27733)
Aircraft: MOONEY M-20K/M ENCORE BRAVO
(M20T)
More flights by this aircraft type
Origin: KVCV Socal Logistics
United States
Destination: KVGT North Las Vegas
United States
More flights between these airports :: More routes between these airports
Route: +APLES V394 DAG V587 BLD
File this flight plan on PilotEdge
Remarks:
Altitude:
(Current/Filed)
11,000ft
Speed:
(Current/Filed)
170kts
Departed: 14-Sep-20 02:12 PM
Arrived: 14-Sep-20 03:14 PM
Distance/Time
Traveled:
144nm/1:02
Distance/Time
To Go:
Arrived

Flight Plot

Page will automatically refresh every two minutes.

Flight plan parsing failed; only flown route is shown


Map Options




Map Legend


Flown Route
Filed Route
Departure Airport
Arrival Airport
Navaid (VOR, NDB)
Fix

Horizontal Profiles

Position Reports

Time Latitude Longitude Heading Altitude Ground
Speed
14-Sep-20 13:47 34.588333 -117.376341 314 2886ft 0kts
14-Sep-20 13:48 34.588333 -117.376341 314 2886ft 0kts
14-Sep-20 13:49 34.588333 -117.376341 314 2886ft 0kts
14-Sep-20 13:50 34.588333 -117.376341 314 2886ft 0kts
14-Sep-20 13:51 34.588333 -117.376341 314 2886ft 0kts
14-Sep-20 13:52 34.588333 -117.376341 314 2886ft 0kts
14-Sep-20 13:53 34.588333 -117.376341 314 2886ft 0kts
14-Sep-20 13:54 34.588333 -117.376341 314 2886ft 0kts
14-Sep-20 13:55 34.588333 -117.376341 314 2886ft 0kts
14-Sep-20 13:56 34.588333 -117.376341 314 2886ft 0kts
14-Sep-20 13:57 34.588333 -117.376341 314 2886ft 0kts
14-Sep-20 13:57 34.588333 -117.376341 314 2886ft 0kts
14-Sep-20 13:58 34.588333 -117.376341 314 2886ft 0kts
14-Sep-20 13:59 34.588333 -117.376341 314 2886ft 0kts
14-Sep-20 14:01 34.588333 -117.376341 314 2886ft 0kts
14-Sep-20 14:01 34.588333 -117.376341 314 2886ft 0kts
14-Sep-20 14:02 34.588333 -117.376341 314 2886ft 0kts
14-Sep-20 14:03 34.588610 -117.376616 324 2886ft 8kts
14-Sep-20 14:04 34.590946 -117.375099 51 2886ft 6kts
14-Sep-20 14:05 34.592608 -117.373170 43 2886ft 14kts
14-Sep-20 14:06 34.593287 -117.369332 88 2886ft 12kts
14-Sep-20 14:07 34.596932 -117.367117 11 2886ft 21kts
14-Sep-20 14:08 34.599165 -117.366590 10 2886ft 0kts
14-Sep-20 14:09 34.599165 -117.366590 10 2886ft 0kts
14-Sep-20 14:10 34.599732 -117.366555 359 2886ft 7kts
14-Sep-20 14:11 34.598033 -117.369510 224 2886ft 70kts
14-Sep-20 14:12 34.580158 -117.401468 262 3433ft 145kts
14-Sep-20 14:13 34.573529 -117.452633 262 4382ft 157kts
14-Sep-20 14:14 34.566761 -117.505689 262 5390ft 160kts
14-Sep-20 14:15 34.560262 -117.558590 262 6499ft 153kts
14-Sep-20 14:16 34.544160 -117.599014 177 7686ft 140kts
14-Sep-20 14:17 34.532599 -117.561780 87 8847ft 134kts
14-Sep-20 14:18 34.534391 -117.515992 88 9954ft 137kts
14-Sep-20 14:19 34.536268 -117.468481 88 10856ft 154kts
14-Sep-20 14:20 34.538516 -117.410536 88 11001ft 189kts
14-Sep-20 14:21 34.541077 -117.344367 88 11000ft 200kts
14-Sep-20 14:22 34.543690 -117.276267 88 11000ft 202kts
14-Sep-20 14:23 34.546225 -117.209376 88 11119ft 196kts
14-Sep-20 14:24 34.555871 -117.145228 57 11117ft 198kts
14-Sep-20 14:25 34.590109 -117.092961 50 11112ft 199kts
14-Sep-20 14:26 34.627049 -117.041798 50 11005ft 202kts
14-Sep-20 14:27 34.664169 -116.990758 51 10990ft 202kts
14-Sep-20 14:28 34.701556 -116.939308 52 10974ft 204kts
14-Sep-20 14:29 34.739370 -116.887194 53 10958ft 207kts
14-Sep-20 14:30 34.777552 -116.834488 53 10954ft 208kts
14-Sep-20 14:31 34.815851 -116.781545 53 10955ft 209kts
14-Sep-20 14:32 34.854294 -116.728321 53 10955ft 211kts
14-Sep-20 14:33 34.893475 -116.673992 52 10955ft 214kts
14-Sep-20 14:34 34.932819 -116.619354 52 10956ft 215kts
14-Sep-20 14:35 34.969137 -116.561997 64 10962ft 213kts
14-Sep-20 14:36 34.991554 -116.496381 65 10972ft 213kts
14-Sep-20 14:37 35.020389 -116.432659 64 10988ft 215kts
14-Sep-20 14:38 35.049416 -116.368672 64 10964ft 216kts
14-Sep-20 14:40 35.083147 -116.294200 64 10965ft 215kts
14-Sep-20 14:40 35.107221 -116.240950 65 10962ft 214kts
14-Sep-20 14:41 35.135990 -116.177188 64 10965ft 214kts
14-Sep-20 14:42 35.164558 -116.113774 64 11008ft 213kts
14-Sep-20 14:43 35.193087 -116.050321 64 11008ft 213kts
14-Sep-20 14:44 35.221703 -115.986557 64 11008ft 213kts
14-Sep-20 14:45 35.250222 -115.922886 64 11008ft 213kts
14-Sep-20 14:46 35.278702 -115.859187 65 11018ft 213kts
14-Sep-20 14:47 35.307154 -115.795565 62 11028ft 213kts
14-Sep-20 14:48 35.345955 -115.740102 50 11041ft 215kts
14-Sep-20 14:49 35.386320 -115.686153 50 11051ft 214kts
14-Sep-20 14:50 35.426679 -115.632287 50 11054ft 214kts
14-Sep-20 14:51 35.467014 -115.578378 50 11054ft 214kts
14-Sep-20 14:52 35.507440 -115.524254 50 10975ft 217kts
14-Sep-20 14:53 35.547957 -115.469912 50 10271ft 214kts
14-Sep-20 14:54 35.586643 -115.417993 50 10053ft 197kts
14-Sep-20 14:55 35.623678 -115.368171 50 10054ft 200kts
14-Sep-20 14:56 35.661808 -115.316807 51 10010ft 204kts
14-Sep-20 14:57 35.700046 -115.265227 51 10010ft 204kts
14-Sep-20 14:58 35.738320 -115.213521 51 10010ft 204kts
14-Sep-20 14:59 35.785024 -115.172418 21 9445ft 222kts
14-Sep-20 15:00 35.843283 -115.148416 21 8448ft 219kts
14-Sep-20 15:01 35.900429 -115.124465 21 7450ft 215kts
14-Sep-20 15:02 35.955131 -115.101050 21 6990ft 196kts
14-Sep-20 15:03 36.004466 -115.079885 21 7022ft 182kts
14-Sep-20 15:04 36.051422 -115.056043 21 7012ft 182kts
14-Sep-20 15:05 36.098461 -115.052548 331 6663ft 185kts
14-Sep-20 15:06 36.144844 -115.082938 323 5966ft 185kts
14-Sep-20 15:07 36.186116 -115.121392 319 5060ft 184kts
14-Sep-20 15:08 36.222143 -115.162353 310 4448ft 166kts
14-Sep-20 15:09 36.249119 -115.198397 311 3671ft 124kts
14-Sep-20 15:10 36.249557 -115.231841 211 3018ft 106kts
14-Sep-20 15:11 36.225589 -115.216149 141 2549ft 111kts
14-Sep-20 15:12 36.206888 -115.192756 137 2207ft 45kts
14-Sep-20 15:13 36.205603 -115.192390 313 2207ft 13kts
14-Sep-20 15:14 36.207741 -115.195847 264 2207ft 12kts

Navigation Log

Ident Type
Flight plan parsing failed, navigation log unavailable